Flight Track Log - Related Links

Times and Time Zones

All times are in EDT time to prevent confusion due to time zone crossing. See the SWA1802 flight status page for this flight to view local times or setup timezone preferences in your user account.

Time Position Orientation Groundspeed Altitude Reporting Facility
EDT Latitude Longitude Course Direction KTS MPH feet Rate Location/Type
Tue 06:16:50 PM 41.8167 -87.7833 283° West 237 273 2,800  Level Chicago TRACON
Tue 06:17:53 PM 41.7928 -87.8456 243° Southwest 240 276 3,400 2,208 Climbing Chicago Center
Tue 06:18:55 PM 41.7511 -87.9458 241° Southwest 279 321 7,400 3,532 Climbing Chicago Center
Tue 06:19:57 PM 41.7500 -88.0481 269° West 278 320 10,700 2,226 Climbing Chicago Center
Tue 06:20:59 PM 41.7689 -88.1475 284° West 287 330 12,000 677 Climbing Chicago Center
Tue 06:22:00 PM 41.9245 -88.6132 283° West  Level FlightAware Approximate
Tue 06:22:01 PM 41.7806 -88.2494 279° West 281 323 12,100  Level Chicago Center
Tue 06:23:03 PM 41.7803 -88.3944 270° West 330 380 14,200 2,177 Climbing Chicago Center
Tue 06:24:05 PM 41.7825 -88.5258 271° West 353 406 16,600 2,032 Climbing Chicago Center
Tue 06:25:07 PM 41.7558 -88.6544 255° West 362 417 18,400 1,887 Climbing Chicago Center
Tue 06:26:09 PM 41.7289 -88.7900 255° West 377 434 20,500 1,872 Climbing Chicago Center
Tue 06:27:12 PM 41.6989 -88.9289 254° West 389 448 22,300 1,776 Climbing Chicago Center
Tue 06:28:14 PM 41.6625 -89.0997 254° West 400 460 24,200 1,452 Climbing Chicago Center
Tue 06:29:16 PM 41.6314 -89.2492 254° West 416 479 25,300 1,210 Climbing Chicago Center
Tue 06:30:18 PM 41.5981 -89.4003 254° West 427 491 26,700 1,500 Climbing Chicago Center
Tue 06:31:20 PM 41.5622 -89.5658 254° West 431 496 28,400 1,645 Climbing Chicago Center
Tue 06:32:22 PM 41.5289 -89.7167 254° West 428 493 30,100 1,548 Climbing Chicago Center
Tue 06:33:24 PM 41.4967 -89.8664 254° West 423 487 31,600 1,452 Climbing Chicago Center
Tue 06:34:26 PM 41.4642 -90.0122 253° West 414 476 33,100 1,306 Climbing Chicago Center
Tue 06:35:28 PM 41.4414 -90.1911 260° West 410 472 34,300 960 Climbing Chicago Center
Tue 06:36:31 PM 41.4219 -90.3394 260° West 411 473 35,100 816 Climbing Chicago Center
Tue 06:37:33 PM 41.3997 -90.4878 259° West 410 472 36,000 435 Climbing Chicago Center
Tue 06:38:35 PM 41.3672 -90.6356 254° West 416 479 36,000  Level Chicago Center
Tue 06:39:37 PM 41.3336 -90.7814 253° West 416 479 36,000  Level Chicago Center
Tue 06:40:39 PM 41.2861 -90.9172 245° Southwest 409 471 36,000  Level Chicago Center
Tue 06:41:41 PM 41.2311 -91.0808 246° West 407 468 36,000  Level Chicago Center
Tue 06:42:43 PM 41.2117 -91.2261 260° West 401 461 36,000  Level Chicago Center
Tue 06:43:45 PM 41.1906 -91.3711 259° West 401 461 36,000  Level Chicago Center
Tue 06:44:47 PM 41.1700 -91.5147 259° West 399 459 36,000  Level Chicago Center
Tue 06:45:50 PM 41.1489 -91.6600 259° West 400 460 36,000  Level Chicago Center
Tue 06:46:52 PM 41.1244 -91.8333 259° West 400 460 36,000  Level Chicago Center
Tue 06:47:54 PM 41.1033 -91.9758 259° West 399 459 36,000  Level Chicago Center
Tue 06:48:56 PM 41.0822 -92.1225 259° West 405 466 36,000  Level Chicago Center
Tue 06:49:58 PM 41.0608 -92.2667 259° West 404 465 36,000  Level Chicago Center
Tue 06:51:00 PM 41.0392 -92.4108 259° West 403 464 36,000  Level Chicago Center
Tue 06:52:02 PM 41.0119 -92.5858 258° West 407 468 36,000  Level Chicago Center
Tue 06:53:04 PM 40.9900 -92.7306 259° West 407 468 36,000  Level Chicago Center
Tue 06:54:06 PM 40.9683 -92.8756 259° West 408 470 36,000  Level Chicago Center
Tue 06:55:08 PM 40.9453 -93.0206 258° West 408 470 36,000  Level Chicago Center
Tue 06:56:10 PM 40.9181 -93.1919 258° West 403 464 36,000  Level Chicago Center
Tue 06:57:15 PM 40.8969 -93.3319 259° West 397 457 36,000  Level Minneapolis Center
Tue 06:58:17 PM 40.8739 -93.4758 258° West 401 461 36,000  Level Minneapolis Center
Tue 06:59:19 PM 40.8508 -93.6181 258° West 401 461 36,000  Level Minneapolis Center
Tue 07:00:21 PM 40.8225 -93.7894 258° West 402 463 36,000  Level Minneapolis Center
Tue 07:01:23 PM 40.7989 -93.9342 258° West 405 466 36,000  Level Minneapolis Center
Tue 07:02:26 PM 40.7747 -94.0772 257° West 403 464 36,000  Level Minneapolis Center
Tue 07:03:28 PM 40.7511 -94.2222 258° West 407 468 36,000  Level Minneapolis Center
Tue 07:04:30 PM 40.7247 -94.3689 257° West 410 472 36,000  Level Minneapolis Center
Tue 07:05:32 PM 40.6944 -94.5431 257° West 411 473 36,000  Level Minneapolis Center
Tue 07:06:34 PM 40.6697 -94.6878 257° West 407 468 36,000  Level Minneapolis Center
Tue 07:07:36 PM 40.6444 -94.8358 257° West 411 473 36,000  Level Minneapolis Center
Tue 07:08:38 PM 40.6181 -94.9828 257° West 413 475 36,000  Level Minneapolis Center
Tue 07:09:40 PM 40.5936 -95.1283 258° West 409 471 36,000  Level Minneapolis Center
Tue 07:10:42 PM 40.5678 -95.2744 257° West 409 471 36,000  Level Minneapolis Center
Tue 07:11:44 PM 40.5375 -95.4478 257° West 406 467 36,000  Level Minneapolis Center
Tue 07:12:46 PM 40.5111 -95.5906 256° West 403 464 36,000  Level Minneapolis Center
Tue 07:13:48 PM 40.4864 -95.7342 257° West 401 461 36,000  Level Minneapolis Center
Tue 07:14:50 PM 40.4600 -95.8769 256° West 401 461 36,000  Level Minneapolis Center
Tue 07:15:52 PM 40.4336 -96.0175 256° West 398 458 36,000  Level Minneapolis Center
Tue 07:16:54 PM 40.4081 -96.1600 257° West 398 458 36,000  Level Minneapolis Center
Tue 07:17:57 PM 40.3817 -96.3025 256° West 400 460 36,000  Level Minneapolis Center
Tue 07:19:00 PM 40.3483 -96.4742 256° West 403 464 36,000  Level Minneapolis Center
Tue 07:20:02 PM 40.3211 -96.6183 256° West 405 466 36,000  Level Minneapolis Center
Tue 07:21:04 PM 40.2942 -96.7628 256° West 408 470 36,000  Level Minneapolis Center
Tue 07:22:06 PM 40.2667 -96.9064 256° West 407 468 36,000  Level Minneapolis Center
Tue 07:23:08 PM 40.2389 -97.0503 256° West 406 467 36,000  Level Minneapolis Center
Tue 07:24:10 PM 40.2044 -97.2228 255° West 408 470 36,000  Level Minneapolis Center
Tue 07:25:12 PM 40.1808 -97.3469 256° West 407 468 36,000  Level Minneapolis Center
Tue 07:26:14 PM 40.1464 -97.5175 255° West 405 466 36,000  Level Minneapolis Center
Tue 07:27:16 PM 40.1183 -97.6581 255° West 401 461 36,000  Level Minneapolis Center
Tue 07:28:18 PM 40.0897 -97.7997 255° West 401 461 36,000  Level Minneapolis Center
Tue 07:29:20 PM 40.0611 -97.9406 255° West 400 460 36,000  Level Minneapolis Center
Tue 07:30:23 PM 40.0325 -98.0822 255° West 402 463 36,000  Level Minneapolis Center
Tue 07:31:25 PM 40.0036 -98.2225 255° West 401 461 36,000  Level Minneapolis Center
Tue 07:32:27 PM 39.9750 -98.3639 255° West 401 461 36,000  Level Minneapolis Center
Tue 07:33:29 PM 39.9397 -98.5322 255° West 401 461 36,000  Level Minneapolis Center
Tue 07:34:31 PM 39.9092 -98.6731 254° West 402 463 36,000  Level Minneapolis Center
Tue 07:35:33 PM 39.8803 -98.8139 255° West 402 463 36,000  Level Minneapolis Center
Tue 07:36:35 PM 39.8511 -98.9564 255° West 404 465 36,000  Level Minneapolis Center
Tue 07:37:37 PM 39.8208 -99.0950 254° West 401 461 36,000  Level Minneapolis Center
Tue 07:38:38 PM 39.7914 -99.2325 254° West 396 456 36,000  Level Minneapolis Center
Tue 07:39:40 PM 39.7606 -99.3717 254° West 398 458 36,000 -48 Level Minneapolis Center
Tue 07:40:42 PM 39.7303 -99.5106 254° West 398 458 35,900 97 Descending Minneapolis Center
Tue 07:41:44 PM 39.7003 -99.6731 257° West 390 449 36,200 532 Climbing Minneapolis Center
Tue 07:42:46 PM 39.7211 -99.8161 281° West 397 457 37,000 387 Climbing Minneapolis Center
Tue 07:43:48 PM 39.7464 -99.9564 283° West 399 459 37,000  Level Minneapolis Center
Tue 07:44:50 PM 39.7728 -100.0967 284° West 398 458 37,000  Level Minneapolis Center
Tue 07:45:52 PM 39.7992 -100.2369 284° West 398 458 37,000  Level Minneapolis Center
Tue 07:47:02 PM 39.8297 -100.4006 284° West 398 458 37,000  Level Denver Center
Tue 07:48:04 PM 39.8586 -100.5561 284° West 396 456 37,000  Level Denver Center
Tue 07:49:07 PM 39.8836 -100.6903 284° West 398 458 37,000  Level Denver Center
Tue 07:50:09 PM 39.9128 -100.8447 284° West 394 453 37,000  Level Denver Center
Tue 07:51:11 PM 39.9372 -100.9767 284° West 392 451 37,000  Level Denver Center
Tue 07:52:25 PM 39.9664 -101.1281 284° West 386 444 37,000  Level Denver Center
Tue 07:53:39 PM 39.9950 -101.2778 284° West 383 441 37,000  Level Denver Center
Tue 07:54:42 PM 40.0097 -101.4519 276° West 381 438 37,000  Level Denver Center
Tue 07:55:44 PM 40.0231 -101.5836 278° West 381 438 37,000  Level Denver Center
Tue 07:56:46 PM 40.0500 -101.7344 283° West 382 440 37,000 -488 Level Denver Center
Tue 07:57:47 PM 40.0792 -101.8403 290° West 387 445 36,000 -488 Descending Denver Center
Tue 07:58:49 PM 40.1231 -102.0097 289° West 386 444 36,000  Level Denver Center
Tue 07:59:51 PM 40.1514 -102.1419 286° West 393 452 36,000  Level Denver Center
Tue 08:00:54 PM 40.1825 -102.2964 285° West 394 453 36,000  Level Denver Center
Tue 08:01:55 PM 40.2108 -102.4289 286° West 393 452 36,000  Level Denver Center
Tue 08:03:09 PM 40.2425 -102.5853 285° West 398 458 36,000  Level Denver Center
Tue 08:04:12 PM 40.2733 -102.7372 285° West 402 463 36,000  Level Denver Center
Tue 08:05:14 PM 40.3064 -102.9058 284° West 400 460 36,000  Level Denver Center
Tue 08:06:15 PM 40.3356 -103.0431 286° West 394 453 36,000  Level Denver Center
Tue 08:07:17 PM 40.3586 -103.1539 285° West 395 455 36,000  Level Denver Center
Tue 08:08:19 PM 40.3922 -103.3186 285° West 393 452 36,000  Level Denver Center
Tue 08:09:21 PM 40.3875 -103.4592 268° West 386 444 36,000  Level Denver Center
Tue 08:10:23 PM 40.3389 -103.5872 244° Southwest 389 448 36,000  Level Denver Center
Tue 08:11:25 PM 40.2778 -103.7403 242° Southwest 399 459 36,000  Level Denver Center
Tue 08:12:27 PM 40.2269 -103.8639 242° Southwest 383 441 36,000  Level Denver Center
Tue 08:13:41 PM 40.1767 -103.9889 242° Southwest 386 444 36,000  Level Denver Center
Tue 08:14:43 PM 40.1167 -104.1367 242° Southwest 385 443 36,000  Level Denver Center
Tue 08:15:44 PM 40.0753 -104.2356 241° Southwest 389 448 36,000 441 Level Denver Center
Tue 08:16:59 PM 40.0144 -104.3828 242° Southwest 387 445 37,000 876 Climbing Denver Center
Tue 08:18:01 PM 39.9194 -104.5339 231° Southwest 391 450 38,000 484 Climbing Denver Center
Tue 08:19:03 PM 39.8411 -104.6317 224° Southwest 389 448 38,000  Level Denver Center
Tue 08:20:05 PM 39.7700 -104.7364 229° Southwest 386 444 38,000  Level Denver Center
Tue 08:21:06 PM 39.7219 -104.8622 244° Southwest 395 455 38,000  Level Denver Center
Tue 08:22:08 PM 39.6592 -105.0086 241° Southwest 398 458 38,000  Level Denver Center
Tue 08:23:10 PM 39.6067 -105.1364 242° Southwest 405 466 38,000  Level Denver Center
Tue 08:24:12 PM 39.5536 -105.2608 241° Southwest 397 457 38,000  Level Denver Center
Tue 08:25:14 PM 39.5003 -105.3881 242° Southwest 404 465 38,000  Level Denver Center
Tue 08:26:15 PM 39.4478 -105.5139 242° Southwest 394 453 38,000  Level Denver Center
Tue 08:27:17 PM 39.3961 -105.6372 242° Southwest 385 443 38,000  Level Denver Center
Tue 08:28:19 PM 39.3331 -105.7892 242° Southwest 397 457 38,000  Level Denver Center
Tue 08:29:21 PM 39.2792 -105.9150 241° Southwest 402 463 38,000  Level Denver Center
Tue 08:30:23 PM 39.2258 -106.0425 242° Southwest 405 466 38,000  Level Denver Center
Tue 08:31:24 PM 39.1708 -106.1703 241° Southwest 408 470 38,000  Level Denver Center
Tue 08:32:26 PM 39.1083 -106.3161 241° Southwest 414 476 38,000  Level Denver Center
Tue 08:33:28 PM 39.0556 -106.4389 241° Southwest 410 472 38,000  Level Denver Center
Tue 08:34:29 PM 39.0017 -106.5633 241° Southwest 413 475 38,000  Level Denver Center
Tue 08:35:31 PM 38.9364 -106.7108 240° Southwest 421 484 38,000  Level Denver Center
Tue 08:36:33 PM 38.8822 -106.8342 241° Southwest 417 480 38,000  Level Denver Center
Tue 08:37:34 PM 38.8269 -106.9614 241° Southwest 416 479 38,000  Level Denver Center
Tue 08:38:36 PM 38.7703 -107.0897 241° Southwest 413 475 38,000  Level Denver Center
Tue 08:39:37 PM 38.7103 -107.2261 241° Southwest 416 479 38,000  Level Denver Center
Tue 08:40:39 PM 38.6472 -107.3692 241° Southwest 414 476 38,000  Level Denver Center
Tue 08:41:41 PM 38.5914 -107.4936 240° Southwest 417 480 38,000  Level Denver Center
Tue 08:42:42 PM 38.5267 -107.6383 240° Southwest 420 483 38,000  Level Denver Center
Tue 08:43:44 PM 38.4711 -107.7619 240° Southwest 420 483 38,000  Level Denver Center
Tue 08:44:57 PM 38.4150 -107.8869 240° Southwest 422 486 38,000  Level Denver Center
Tue 08:45:59 PM 38.3217 -108.0328 231° Southwest 417 480 38,000  Level Denver Center
Tue 08:47:01 PM 38.2042 -108.1156 209° Southwest 428 493 38,000  Level Denver Center
Tue 08:48:02 PM 38.1025 -108.1817 207° Southwest 427 491 38,000  Level Denver Center
Tue 08:49:04 PM 37.9897 -108.2361 201° Southwest 427 491 38,000  Level Denver Center
Tue 08:50:05 PM 37.8781 -108.2814 198° South 437 503 38,000  Level Denver Center
Tue 08:51:07 PM 37.7836 -108.3906 222° Southwest 428 493 38,000  Level Denver Center
Tue 08:52:09 PM 37.7328 -108.5172 243° Southwest 421 484 38,000  Level Denver Center
Tue 08:53:10 PM 37.6758 -108.6647 244° Southwest 419 482 38,000  Level Denver Center
Tue 08:54:12 PM 37.6275 -108.7864 243° Southwest 412 474 38,000  Level Denver Center
Tue 08:55:13 PM 37.5708 -108.9303 244° Southwest 406 467 38,000  Level Denver Center
Tue 08:56:27 PM 37.5214 -109.0556 244° Southwest 414 476 38,000  Level Denver Center
Tue 08:57:29 PM 37.4564 -109.2214 244° Southwest 415 478 38,000  Level Denver Center
Tue 08:58:30 PM 37.4078 -109.3444 244° Southwest 413 475 38,000  Level Denver Center
Tue 08:59:32 PM 37.3500 -109.4903 244° Southwest 417 480 38,000  Level Denver Center
Tue 09:00:34 PM 37.3000 -109.6128 243° Southwest 415 478 38,000  Level Denver Center
Tue 09:01:35 PM 37.2506 -109.7356 243° Southwest 413 475 38,000  Level Denver Center
Tue 09:02:37 PM 37.1925 -109.8803 243° Southwest 416 479 38,000  Level Denver Center
Tue 09:03:38 PM 37.1428 -110.0028 243° Southwest 413 475 38,000  Level Denver Center
Tue 09:04:52 PM 37.0711 -110.1367 236° Southwest 425 489 38,000  Level Denver Center
Tue 09:05:54 PM 36.9781 -110.2536 225° Southwest 415 478 38,000  Level Denver Center
Tue 09:06:55 PM 36.8972 -110.3564 225° Southwest 416 479 38,000  Level Denver Center
Tue 09:07:57 PM 36.8169 -110.4583 225° Southwest 412 474 38,000  Level Denver Center
Tue 09:08:58 PM 36.7364 -110.5594 225° Southwest 411 473 38,000  Level Denver Center
Tue 09:10:00 PM 36.6522 -110.6906 231° Southwest 408 470 38,000  Level Denver Center
Tue 09:11:01 PM 36.6067 -110.8197 246° West 407 468 38,000  Level Denver Center
Tue 09:12:15 PM 36.5628 -110.9506 247° West 409 471 38,000  Level Denver Center
Tue 09:13:16 PM 36.5067 -111.1081 246° West 413 475 38,000  Level Denver Center
Tue 09:14:18 PM 36.4614 -111.2383 247° West 412 474 38,000  Level Denver Center
Tue 09:15:20 PM 36.4164 -111.3683 247° West 411 473 38,000  Level Denver Center
Tue 09:16:21 PM 36.3700 -111.4981 246° West 410 472 38,000  Level Denver Center
Tue 09:17:23 PM 36.3236 -111.6292 246° West 412 474 38,000  Level Denver Center
Tue 09:18:24 PM 36.2686 -111.7861 247° West 414 476 38,000  Level Denver Center
Tue 09:19:26 PM 36.2225 -111.9167 246° West 413 475 38,000  Level Denver Center
Tue 09:20:27 PM 36.1842 -112.0217 246° West 414 476 38,000  Level Denver Center
Tue 09:21:29 PM 36.1275 -112.1781 246° West 415 478 38,000  Level Denver Center
Tue 09:22:31 PM 36.0803 -112.3094 246° West 417 480 38,000  Level Denver Center
Tue 09:23:45 PM 36.0236 -112.4653 246° West 413 475 38,000  Level Los Angeles Center
Tue 09:24:47 PM 35.9769 -112.5950 246° West 414 476 38,000  Level Los Angeles Center
Tue 09:25:48 PM 35.9247 -112.7342 245° Southwest 413 475 38,000  Level Los Angeles Center
Tue 09:26:50 PM 35.8786 -112.8622 246° West 414 476 38,000  Level Los Angeles Center
Tue 09:27:51 PM 35.8314 -112.9900 246° West 414 476 38,000  Level Los Angeles Center
Tue 09:28:53 PM 35.7842 -113.1169 245° Southwest 413 475 38,000  Level Los Angeles Center
Tue 09:29:54 PM 35.7283 -113.2681 246° West 410 472 38,000  Level Los Angeles Center
Tue 09:30:56 PM 35.6814 -113.3953 246° West 412 474 38,000  Level Los Angeles Center
Tue 09:31:57 PM 35.6336 -113.5214 245° Southwest 412 474 38,000  Level Los Angeles Center
Tue 09:32:59 PM 35.5853 -113.6461 245° Southwest 411 473 38,000  Level Los Angeles Center
Tue 09:34:00 PM 35.5333 -113.7689 243° Southwest 409 471 38,000  Level Los Angeles Center
Tue 09:35:02 PM 35.4825 -113.8933 243° Southwest 412 474 38,000  Level Los Angeles Center
Tue 09:36:03 PM 35.4289 -114.0264 244° Southwest 415 478 38,000  Level Los Angeles Center
Tue 09:37:04 PM 35.3664 -114.1778 243° Southwest 415 478 38,000  Level Los Angeles Center
Tue 09:38:06 PM 35.3153 -114.3047 244° Southwest 416 479 38,000  Level Los Angeles Center
Tue 09:39:07 PM 35.2636 -114.4294 243° Southwest 412 474 38,000  Level Los Angeles Center
Tue 09:40:09 PM 35.2114 -114.5536 243° Southwest 410 472 38,000  Level Los Angeles Center
Tue 09:41:10 PM 35.1694 -114.6533 243° Southwest 411 473 38,000  Level Los Angeles Center
Tue 09:42:12 PM 35.1069 -114.8028 243° Southwest 410 472 38,000  Level Los Angeles Center
Tue 09:43:13 PM 35.0553 -114.9264 243° Southwest 409 471 38,000  Level Los Angeles Center
Tue 09:44:15 PM 35.0033 -115.0486 243° Southwest 406 467 38,000  Level Los Angeles Center
Tue 09:45:16 PM 34.9514 -115.1714 243° Southwest 406 467 38,000  Level Los Angeles Center
Tue 09:46:18 PM 34.8906 -115.3169 243° Southwest 402 463 38,000  Level Los Angeles Center
Tue 09:47:19 PM 34.8389 -115.4386 243° Southwest 405 466 38,000  Level Los Angeles Center
Tue 09:48:21 PM 34.7864 -115.5606 242° Southwest 407 468 38,000  Level Los Angeles Center
Tue 09:49:22 PM 34.7386 -115.6722 243° Southwest 406 467 38,000  Level Los Angeles Center
Tue 09:50:23 PM 34.6864 -115.7947 243° Southwest 407 468 38,000  Level Los Angeles Center
Tue 09:51:37 PM 34.6342 -115.9147 242° Southwest 403 464 38,000  Level Los Angeles Center
Tue 09:52:38 PM 34.5719 -116.0586 242° Southwest 401 461 38,000 -1,122 Level Los Angeles Center
Tue 09:53:40 PM 34.5108 -116.1978 242° Southwest 391 450 35,700 -2,488 Descending Los Angeles Center
Tue 09:54:41 PM 34.4600 -116.3147 242° Southwest 392 451 32,900 -2,459 Descending Los Angeles Center
Tue 09:55:42 PM 34.4042 -116.4408 242° Southwest 421 484 30,700 -2,098 Descending Los Angeles Center
Tue 09:56:44 PM 34.3486 -116.5653 242° Southwest 421 484 28,600 -1,854 Descending Los Angeles Center
Tue 09:57:45 PM 34.3069 -116.6614 242° Southwest 408 470 26,900 -2,066 Descending Los Angeles Center
Tue 09:58:46 PM 34.2444 -116.8014 242° Southwest 395 455 24,400 -2,044 Descending Los Angeles Center
Tue 10:00:00 PM 34.1931 -116.9164 242° Southwest 389 448 22,300 -1,956 Descending Los Angeles Center
Tue 10:01:01 PM 34.1347 -117.0481 242° Southwest 373 429 20,000 -2,200 Descending Los Angeles Center
Tue 10:01:30 PM 34.1000 -117.1167 239° Southwest 363 418 19,000 -2,170 Descending Southern California TRACON
Tue 10:02:35 PM 34.0500 -117.2333 243° Southwest 368 423 16,600 -2,238 Descending Southern California TRACON
Tue 10:03:36 PM 34.0333 -117.3500 260° West 362 417 14,300 -2,182 Descending Southern California TRACON
Tue 10:04:36 PM 34.0333 -117.4667 270° West 354 407 12,200 -1,800 Descending Southern California TRACON
Tue 10:05:36 PM 34.0333 -117.5833 270° West 336 387 10,700 -1,100 Descending Southern California TRACON
Tue 10:06:36 PM 34.0167 -117.6833 259° West 294 338 10,000 -947 Descending Southern California TRACON
Tue 10:07:30 PM 34.0167 -117.7833 270° West 289 333 8,900 -1,263 Descending Southern California TRACON
Tue 10:08:30 PM 34.0000 -117.8667 256° West 286 329 7,600 -1,100 Descending Southern California TRACON
Tue 10:09:30 PM 34.0000 -117.9667 270° West 273 314 6,700 -1,000 Descending Southern California TRACON
Tue 10:10:24 PM 33.9833 -118.0333 253° West 261 300 5,700 -1,053 Descending Southern California TRACON
Tue 10:11:24 PM 33.9833 -118.1167 270° West 236 272 4,700 -1,062 Descending Southern California TRACON
Tue 10:12:17 PM 33.9744 -118.1817 261° West 236 272 3,700 -991 Descending Los Angeles Center
Tue 10:13:19 PM 33.9686 -118.2414 263° West 194 223 2,800 -871 Descending Los Angeles Center
Tue 10:14:21 PM 33.9639 -118.2958 264° West 175 201 1,900 -829 Descending Los Angeles Center
Tue 10:15:22 PM 33.9589 -118.3431 263° West 159 183 1,100 -732 Descending Los Angeles Center
Tue 10:16:24 PM 33.9544 -118.3894 263° West 148 170 400 -439 Descending Los Angeles Center
Tue 10:17:25 PM 33.9486 -118.4347 261° West 146 168 200 -197 Descending Los Angeles Center
Tue 10:19:00 PM 33.9425 -118.4081 259° West  Level Estimated

Login

Don't have an account? Register now (free) for customized features, flight alerts, and more!